sensor_id;sensor_type;location;lat;lon;timestamp;pressure;altitude;pressure_sealevel;temperature;humidity
67109;BME280;54027;50.786;7.058;2022-08-19T00:01:11;100840.00;;;19.48;63.92
67109;BME280;54027;50.786;7.058;2022-08-19T00:03:37;100842.38;;;19.52;63.43
67109;BME280;54027;50.786;7.058;2022-08-19T00:06:02;100835.41;;;19.51;63.72
67109;BME280;54027;50.786;7.058;2022-08-19T00:08:28;100829.97;;;19.54;63.66
67109;BME280;54027;50.786;7.058;2022-08-19T00:10:53;100836.00;;;19.56;62.97
67109;BME280;54027;50.786;7.058;2022-08-19T00:13:19;100835.16;;;19.56;63.05
67109;BME280;54027;50.786;7.058;2022-08-19T00:15:44;100832.69;;;19.53;63.26
67109;BME280;54027;50.786;7.058;2022-08-19T00:18:09;100840.69;;;19.51;63.64
67109;BME280;54027;50.786;7.058;2022-08-19T00:20:35;100839.09;;;19.49;63.67
67109;BME280;54027;50.786;7.058;2022-08-19T00:23:00;100846.03;;;19.50;63.25
67109;BME280;54027;50.786;7.058;2022-08-19T00:25:25;100847.06;;;19.47;63.53
67109;BME280;54027;50.786;7.058;2022-08-19T00:27:50;100843.66;;;19.45;63.48
67109;BME280;54027;50.786;7.058;2022-08-19T00:30:16;100839.31;;;19.44;63.81
67109;BME280;54027;50.786;7.058;2022-08-19T00:32:41;100834.16;;;19.43;63.76
67109;BME280;54027;50.786;7.058;2022-08-19T00:35:06;100838.66;;;19.41;63.58
67109;BME280;54027;50.786;7.058;2022-08-19T00:37:32;100838.75;;;19.39;63.95
67109;BME280;54027;50.786;7.058;2022-08-19T00:39:59;100835.25;;;19.39;63.88
67109;BME280;54027;50.786;7.058;2022-08-19T00:42:24;100844.34;;;19.33;63.61
67109;BME280;54027;50.786;7.058;2022-08-19T00:44:53;100847.91;;;19.32;63.96
67109;BME280;54027;50.786;7.058;2022-08-19T00:47:18;100845.38;;;19.31;64.01
67109;BME280;54027;50.786;7.058;2022-08-19T00:49:45;100849.06;;;19.26;64.38
67109;BME280;54027;50.786;7.058;2022-08-19T00:52:17;100848.22;;;19.26;64.13
67109;BME280;54027;50.786;7.058;2022-08-19T00:54:44;100843.06;;;19.24;64.24
67109;BME280;54027;50.786;7.058;2022-08-19T00:57:14;100851.88;;;19.23;64.34
67109;BME280;54027;50.786;7.058;2022-08-19T00:59:41;100855.44;;;19.22;64.32
67109;BME280;54027;50.786;7.058;2022-08-19T01:02:07;100853.75;;;19.21;64.33
67109;BME280;54027;50.786;7.058;2022-08-19T01:04:32;100849.34;;;19.22;64.38
67109;BME280;54027;50.786;7.058;2022-08-19T01:06:58;100854.00;;;19.17;64.50
67109;BME280;54027;50.786;7.058;2022-08-19T01:09:24;100846.94;;;19.17;64.48
67109;BME280;54027;50.786;7.058;2022-08-19T01:11:49;100845.34;;;19.15;64.73
67109;BME280;54027;50.786;7.058;2022-08-19T01:14:15;100843.63;;;19.14;64.64
67109;BME280;54027;50.786;7.058;2022-08-19T01:16:41;100841.84;;;19.14;64.33
67109;BME280;54027;50.786;7.058;2022-08-19T01:19:12;100846.38;;;19.12;64.72
67109;BME280;54027;50.786;7.058;2022-08-19T01:21:42;100838.47;;;19.12;64.56
67109;BME280;54027;50.786;7.058;2022-08-19T01:24:11;100831.59;;;19.10;64.59
67109;BME280;54027;50.786;7.058;2022-08-19T01:26:40;100834.13;;;19.11;64.63
67109;BME280;54027;50.786;7.058;2022-08-19T01:29:06;100832.44;;;19.10;64.56
67109;BME280;54027;50.786;7.058;2022-08-19T01:31:32;100834.28;;;19.08;64.58
67109;BME280;54027;50.786;7.058;2022-08-19T01:33:58;100837.88;;;19.07;64.81
67109;BME280;54027;50.786;7.058;2022-08-19T01:36:31;100830.91;;;19.06;64.57
67109;BME280;54027;50.786;7.058;2022-08-19T01:38:57;100824.78;;;19.06;65.11
67109;BME280;54027;50.786;7.058;2022-08-19T01:41:23;100818.59;;;19.07;64.59
67109;BME280;54027;50.786;7.058;2022-08-19T01:43:49;100824.78;;;19.06;64.92
67109;BME280;54027;50.786;7.058;2022-08-19T01:46:15;100822.25;;;19.04;64.66
67109;BME280;54027;50.786;7.058;2022-08-19T01:48:41;100824.09;;;19.02;64.79
67109;BME280;54027;50.786;7.058;2022-08-19T01:51:08;100819.78;;;19.01;64.94
67109;BME280;54027;50.786;7.058;2022-08-19T01:53:34;100817.16;;;19.01;64.90
67109;BME280;54027;50.786;7.058;2022-08-19T01:56:00;100827.69;;;19.01;64.87
67109;BME280;54027;50.786;7.058;2022-08-19T01:58:38;100836.75;;;18.96;65.17
67109;BME280;54027;50.786;7.058;2022-08-19T02:01:04;100841.94;;;18.97;64.79
67109;BME280;54027;50.786;7.058;2022-08-19T02:03:30;100846.44;;;18.95;64.68
67109;BME280;54027;50.786;7.058;2022-08-19T02:05:56;100847.03;;;19.00;64.37
67109;BME280;54027;50.786;7.058;2022-08-19T02:08:23;100839.03;;;19.02;64.50
67109;BME280;54027;50.786;7.058;2022-08-19T02:10:49;100842.78;;;18.98;64.33
67109;BME280;54027;50.786;7.058;2022-08-19T02:13:15;100842.97;;;18.95;64.55
67109;BME280;54027;50.786;7.058;2022-08-19T02:15:40;100830.81;;;18.92;64.70
67109;BME280;54027;50.786;7.058;2022-08-19T02:18:06;100836.91;;;18.93;64.76
67109;BME280;54027;50.786;7.058;2022-08-19T02:20:33;100832.66;;;18.90;64.86
67109;BME280;54027;50.786;7.058;2022-08-19T02:22:58;100831.06;;;18.88;65.26
67109;BME280;54027;50.786;7.058;2022-08-19T02:25:26;100829.19;;;18.90;65.28
67109;BME280;54027;50.786;7.058;2022-08-19T02:27:51;100829.19;;;18.90;65.23
67109;BME280;54027;50.786;7.058;2022-08-19T02:30:17;100827.41;;;18.90;65.60
67109;BME280;54027;50.786;7.058;2022-08-19T02:32:42;100826.47;;;18.91;65.33
67109;BME280;54027;50.786;7.058;2022-08-19T02:35:08;100830.81;;;18.92;65.49
67109;BME280;54027;50.786;7.058;2022-08-19T02:37:34;100829.97;;;18.92;65.41
67109;BME280;54027;50.786;7.058;2022-08-19T02:40:17;100840.66;;;18.89;65.42
67109;BME280;54027;50.786;7.058;2022-08-19T02:42:43;100839.03;;;18.86;65.64
67109;BME280;54027;50.786;7.058;2022-08-19T02:45:10;100837.16;;;18.88;65.58
67109;BME280;54027;50.786;7.058;2022-08-19T02:47:36;100838.09;;;18.87;65.41
67109;BME280;54027;50.786;7.058;2022-08-19T02:50:01;100838.88;;;18.89;65.13
67109;BME280;54027;50.786;7.058;2022-08-19T02:52:27;100847.69;;;18.88;65.55
67109;BME280;54027;50.786;7.058;2022-08-19T02:54:53;100842.44;;;18.88;65.29
67109;BME280;54027;50.786;7.058;2022-08-19T02:57:18;100847.69;;;18.88;65.34
67109;BME280;54027;50.786;7.058;2022-08-19T02:59:43;100844.31;;;18.86;65.61
67109;BME280;54027;50.786;7.058;2022-08-19T03:02:09;100850.50;;;18.85;65.51
67109;BME280;54027;50.786;7.058;2022-08-19T03:04:34;100846.09;;;18.86;65.45
67109;BME280;54027;50.786;7.058;2022-08-19T03:06:59;100849.63;;;18.85;65.48
67109;BME280;54027;50.786;7.058;2022-08-19T03:09:24;100847.97;;;18.84;65.77
67109;BME280;54027;50.786;7.058;2022-08-19T03:11:50;100850.66;;;18.82;65.73
67109;BME280;54027;50.786;7.058;2022-08-19T03:14:15;100857.69;;;18.82;65.60
67109;BME280;54027;50.786;7.058;2022-08-19T03:16:42;100854.22;;;18.81;65.73
67109;BME280;54027;50.786;7.058;2022-08-19T03:19:08;100856.78;;;18.83;65.60
67109;BME280;54027;50.786;7.058;2022-08-19T03:21:34;100855.91;;;18.82;65.85
67109;BME280;54027;50.786;7.058;2022-08-19T03:24:04;100855.16;;;18.80;65.79
67109;BME280;54027;50.786;7.058;2022-08-19T03:26:29;100848.94;;;18.81;66.22
67109;BME280;54027;50.786;7.058;2022-08-19T03:28:55;100852.53;;;18.80;66.22
67109;BME280;54027;50.786;7.058;2022-08-19T03:31:21;100860.44;;;18.80;66.00
67109;BME280;54027;50.786;7.058;2022-08-19T03:33:52;100863.22;;;18.77;66.04
67109;BME280;54027;50.786;7.058;2022-08-19T03:36:19;100858.81;;;18.78;65.98
67109;BME280;54027;50.786;7.058;2022-08-19T03:38:46;100857.16;;;18.75;65.91
67109;BME280;54027;50.786;7.058;2022-08-19T03:41:14;100864.25;;;18.75;66.00
67109;BME280;54027;50.786;7.058;2022-08-19T03:43:40;100865.84;;;18.77;65.85
67109;BME280;54027;50.786;7.058;2022-08-19T03:46:07;100868.72;;;18.73;66.08
67109;BME280;54027;50.786;7.058;2022-08-19T03:48:33;100872.19;;;18.73;65.95
67109;BME280;54027;50.786;7.058;2022-08-19T03:50:58;100867.78;;;18.74;66.23
67109;BME280;54027;50.786;7.058;2022-08-19T03:53:24;100865.16;;;18.74;66.27
67109;BME280;54027;50.786;7.058;2022-08-19T03:55:51;100862.44;;;18.75;66.19
67109;BME280;54027;50.786;7.058;2022-08-19T03:58:16;100863.78;;;18.66;66.66
67109;BME280;54027;50.786;7.058;2022-08-19T04:00:42;100864.31;;;18.73;65.91
67109;BME280;54027;50.786;7.058;2022-08-19T04:03:07;100861.69;;;18.73;66.14
67109;BME280;54027;50.786;7.058;2022-08-19T04:05:33;100866.78;;;18.76;65.96
67109;BME280;54027;50.786;7.058;2022-08-19T04:07:58;100862.44;;;18.75;65.84
67109;BME280;54027;50.786;7.058;2022-08-19T04:10:24;100865.38;;;18.69;66.27
67109;BME280;54027;50.786;7.058;2022-08-19T04:12:49;100875.09;;;18.68;66.38
67109;BME280;54027;50.786;7.058;2022-08-19T04:15:14;100877.72;;;18.68;66.48
67109;BME280;54027;50.786;7.058;2022-08-19T04:17:40;100880.19;;;18.72;66.29
67109;BME280;54027;50.786;7.058;2022-08-19T04:20:05;100875.75;;;18.72;66.30
67109;BME280;54027;50.786;7.058;2022-08-19T04:22:31;100889.88;;;18.71;66.32
67109;BME280;54027;50.786;7.058;2022-08-19T04:24:56;100888.25;;;18.68;66.60
67109;BME280;54027;50.786;7.058;2022-08-19T04:27:21;100889.22;;;18.66;66.51
67109;BME280;54027;50.786;7.058;2022-08-19T04:29:47;100885.16;;;18.60;66.60
67109;BME280;54027;50.786;7.058;2022-08-19T04:32:12;100881.34;;;18.66;66.38
67109;BME280;54027;50.786;7.058;2022-08-19T04:34:40;100883.06;;;18.67;66.58
67109;BME280;54027;50.786;7.058;2022-08-19T04:37:05;100883.91;;;18.67;66.55
67109;BME280;54027;50.786;7.058;2022-08-19T04:39:36;100872.38;;;18.70;66.67
67109;BME280;54027;50.786;7.058;2022-08-19T04:42:20;100877.63;;;18.70;66.48
67109;BME280;54027;50.786;7.058;2022-08-19T04:45:05;100877.56;;;18.72;66.34
67109;BME280;54027;50.786;7.058;2022-08-19T04:47:31;100874.31;;;18.66;66.53
67109;BME280;54027;50.786;7.058;2022-08-19T04:49:57;100888.25;;;18.68;66.41
67109;BME280;54027;50.786;7.058;2022-08-19T04:52:22;100887.22;;;18.71;66.61
67109;BME280;54027;50.786;7.058;2022-08-19T04:54:48;100884.59;;;18.71;66.73
67109;BME280;54027;50.786;7.058;2022-08-19T04:57:13;100893.66;;;18.65;66.93
67109;BME280;54027;50.786;7.058;2022-08-19T04:59:39;100903.25;;;18.66;66.91
67109;BME280;54027;50.786;7.058;2022-08-19T05:02:04;100902.47;;;18.64;67.01
67109;BME280;54027;50.786;7.058;2022-08-19T05:04:31;100906.72;;;18.67;67.37
67109;BME280;54027;50.786;7.058;2022-08-19T05:06:57;100912.91;;;18.66;67.50
67109;BME280;54027;50.786;7.058;2022-08-19T05:09:23;100919.19;;;18.63;67.61
67109;BME280;54027;50.786;7.058;2022-08-19T05:11:48;100923.38;;;18.67;67.54
67109;BME280;54027;50.786;7.058;2022-08-19T05:14:15;100929.97;;;18.59;67.99
67109;BME280;54027;50.786;7.058;2022-08-19T05:16:41;100928.03;;;18.62;67.11
67109;BME280;54027;50.786;7.058;2022-08-19T05:19:06;100920.22;;;18.61;67.36
67109;BME280;54027;50.786;7.058;2022-08-19T05:21:50;100923.59;;;18.63;67.40
67109;BME280;54027;50.786;7.058;2022-08-19T05:24:34;100923.28;;;18.69;67.42
67109;BME280;54027;50.786;7.058;2022-08-19T05:27:00;100925.84;;;18.70;67.50
67109;BME280;54027;50.786;7.058;2022-08-19T05:29:28;100926.22;;;18.63;67.74
67109;BME280;54027;50.786;7.058;2022-08-19T05:31:54;100933.03;;;18.67;67.56
67109;BME280;54027;50.786;7.058;2022-08-19T05:34:20;100929.19;;;18.74;67.38
67109;BME280;54027;50.786;7.058;2022-08-19T05:36:47;100930.34;;;18.68;67.71
67109;BME280;54027;50.786;7.058;2022-08-19T05:39:19;100936.53;;;18.67;67.64
67109;BME280;54027;50.786;7.058;2022-08-19T05:41:46;100937.06;;;18.74;67.48
67109;BME280;54027;50.786;7.058;2022-08-19T05:44:12;100934.44;;;18.74;67.57
67109;BME280;54027;50.786;7.058;2022-08-19T05:46:37;100930.25;;;18.70;68.08
67109;BME280;54027;50.786;7.058;2022-08-19T05:49:05;100932.66;;;18.75;67.88
67109;BME280;54027;50.786;7.058;2022-08-19T05:51:31;100931.81;;;18.74;68.01
67109;BME280;54027;50.786;7.058;2022-08-19T05:53:57;100931.81;;;18.74;68.16
67109;BME280;54027;50.786;7.058;2022-08-19T05:56:23;100937.84;;;18.76;67.78
67109;BME280;54027;50.786;7.058;2022-08-19T05:58:48;100928.22;;;18.75;68.01
67109;BME280;54027;50.786;7.058;2022-08-19T06:01:15;100934.53;;;18.55;68.88
67109;BME280;54027;50.786;7.058;2022-08-19T06:03:41;100926.16;;;18.64;68.47
67109;BME280;54027;50.786;7.058;2022-08-19T06:06:07;100925.69;;;18.74;68.22
67109;BME280;54027;50.786;7.058;2022-08-19T06:08:33;100923.84;;;18.58;68.74
67109;BME280;54027;50.786;7.058;2022-08-19T06:10:59;100929.50;;;18.68;68.61
67109;BME280;54027;50.786;7.058;2022-08-19T06:13:36;100932.50;;;18.60;69.03
67109;BME280;54027;50.786;7.058;2022-08-19T06:16:01;100930.78;;;18.77;68.33
67109;BME280;54027;50.786;7.058;2022-08-19T06:18:27;100933.28;;;18.80;68.30
67109;BME280;54027;50.786;7.058;2022-08-19T06:20:52;100933.44;;;18.77;68.50
67109;BME280;54027;50.786;7.058;2022-08-19T06:23:18;100935.97;;;18.78;68.50
67109;BME280;54027;50.786;7.058;2022-08-19T06:25:45;100931.41;;;18.82;68.35
67109;BME280;54027;50.786;7.058;2022-08-19T06:28:10;100932.19;;;18.84;68.47
67109;BME280;54027;50.786;7.058;2022-08-19T06:30:36;100937.34;;;18.85;68.42
67109;BME280;54027;50.786;7.058;2022-08-19T06:33:02;100938.44;;;18.81;68.90
67109;BME280;54027;50.786;7.058;2022-08-19T06:35:27;100932.09;;;18.85;68.66
67109;BME280;54027;50.786;7.058;2022-08-19T06:37:54;100939.13;;;18.85;68.67
67109;BME280;54027;50.786;7.058;2022-08-19T06:40:19;100941.47;;;18.74;69.35
67109;BME280;54027;50.786;7.058;2022-08-19T06:42:45;100938.75;;;18.75;69.35
67109;BME280;54027;50.786;7.058;2022-08-19T06:45:10;100935.66;;;18.84;69.22
67109;BME280;54027;50.786;7.058;2022-08-19T06:47:35;100946.53;;;18.94;69.09
67109;BME280;54027;50.786;7.058;2022-08-19T06:50:01;100945.53;;;18.96;68.97
67109;BME280;54027;50.786;7.058;2022-08-19T06:52:33;100945.53;;;18.96;69.04
67109;BME280;54027;50.786;7.058;2022-08-19T06:54:59;100944.66;;;18.96;68.91
67109;BME280;54027;50.786;7.058;2022-08-19T06:57:24;100947.16;;;18.99;68.91
67109;BME280;54027;50.786;7.058;2022-08-19T06:59:50;100950.72;;;18.98;69.11
67109;BME280;54027;50.786;7.058;2022-08-19T07:02:15;100944.50;;;18.99;69.13
67109;BME280;54027;50.786;7.058;2022-08-19T07:04:40;100953.63;;;19.09;69.28
67109;BME280;54027;50.786;7.058;2022-08-19T07:07:10;100953.78;;;19.06;69.38
67109;BME280;54027;50.786;7.058;2022-08-19T07:09:38;100963.84;;;19.15;68.97
67109;BME280;54027;50.786;7.058;2022-08-19T07:12:05;100955.03;;;19.16;68.82
67109;BME280;54027;50.786;7.058;2022-08-19T07:14:31;100954.00;;;19.18;68.94
67109;BME280;54027;50.786;7.058;2022-08-19T07:16:57;100952.13;;;19.20;68.69
67109;BME280;54027;50.786;7.058;2022-08-19T07:19:23;100951.03;;;19.24;68.71
67109;BME280;54027;50.786;7.058;2022-08-19T07:21:50;100955.63;;;19.21;68.92
67109;BME280;54027;50.786;7.058;2022-08-19T07:24:18;100957.16;;;19.25;68.44
67109;BME280;54027;50.786;7.058;2022-08-19T07:26:43;100958.00;;;19.25;68.82
67109;BME280;54027;50.786;7.058;2022-08-19T07:29:09;100969.78;;;19.36;67.94
67109;BME280;54027;50.786;7.058;2022-08-19T07:31:35;100970.63;;;19.36;68.47
67109;BME280;54027;50.786;7.058;2022-08-19T07:34:01;100973.00;;;19.41;68.23
67109;BME280;54027;50.786;7.058;2022-08-19T07:36:28;100968.53;;;19.43;68.44
67109;BME280;54027;50.786;7.058;2022-08-19T07:38:57;100967.50;;;19.45;67.97
67109;BME280;54027;50.786;7.058;2022-08-19T07:41:24;100965.56;;;19.49;67.80
67109;BME280;54027;50.786;7.058;2022-08-19T07:43:49;100966.31;;;19.51;67.20
67109;BME280;54027;50.786;7.058;2022-08-19T07:46:16;100972.28;;;19.54;67.04
67109;BME280;54027;50.786;7.058;2022-08-19T07:48:42;100977.69;;;19.51;67.17
67109;BME280;54027;50.786;7.058;2022-08-19T07:51:10;100975.75;;;19.55;66.81
67109;BME280;54027;50.786;7.058;2022-08-19T07:53:36;100989.75;;;19.55;66.90
67109;BME280;54027;50.786;7.058;2022-08-19T07:56:02;100980.69;;;19.61;66.78
67109;BME280;54027;50.786;7.058;2022-08-19T07:58:32;100978.06;;;19.61;66.78
67109;BME280;54027;50.786;7.058;2022-08-19T08:00:58;100982.88;;;19.68;66.76
67109;BME280;54027;50.786;7.058;2022-08-19T08:03:24;100986.28;;;19.70;66.36
67109;BME280;54027;50.786;7.058;2022-08-19T08:06:07;100991.88;;;19.64;66.17
67109;BME280;54027;50.786;7.058;2022-08-19T08:08:52;100994.03;;;19.73;65.90
67109;BME280;54027;50.786;7.058;2022-08-19T08:11:36;100993.44;;;19.68;66.34
67109;BME280;54027;50.786;7.058;2022-08-19T08:14:01;100990.38;;;19.76;66.07
67109;BME280;54027;50.786;7.058;2022-08-19T08:16:27;100998.03;;;19.80;66.11
67109;BME280;54027;50.786;7.058;2022-08-19T08:18:56;100993.50;;;19.83;66.66
67109;BME280;54027;50.786;7.058;2022-08-19T08:21:24;101003.88;;;19.86;66.39
67109;BME280;54027;50.786;7.058;2022-08-19T08:23:49;101005.34;;;19.75;66.15
67109;BME280;54027;50.786;7.058;2022-08-19T08:26:16;101004.22;;;19.79;65.97
67109;BME280;54027;50.786;7.058;2022-08-19T08:28:42;101003.81;;;19.87;65.19
67109;BME280;54027;50.786;7.058;2022-08-19T08:31:07;101002.28;;;19.83;66.01
67109;BME280;54027;50.786;7.058;2022-08-19T08:33:34;101003.81;;;19.87;65.97
67109;BME280;54027;50.786;7.058;2022-08-19T08:35:59;100995.91;;;19.87;66.19
67109;BME280;54027;50.786;7.058;2022-08-19T08:38:25;100999.47;;;19.86;66.23
67109;BME280;54027;50.786;7.058;2022-08-19T08:40:52;100995.97;;;19.86;65.59
67109;BME280;54027;50.786;7.058;2022-08-19T08:46:12;100997.69;;;19.87;66.32
67109;BME280;54027;50.786;7.058;2022-08-19T08:48:37;100998.53;;;19.87;66.34
67109;BME280;54027;50.786;7.058;2022-08-19T08:51:05;101003.56;;;19.92;66.02
67109;BME280;54027;50.786;7.058;2022-08-19T08:53:32;101001.19;;;19.87;66.27
67109;BME280;54027;50.786;7.058;2022-08-19T08:56:00;100999.97;;;19.93;66.23
67109;BME280;54027;50.786;7.058;2022-08-19T08:58:28;101005.25;;;19.93;65.74
67109;BME280;54027;50.786;7.058;2022-08-19T09:00:56;101006.19;;;19.92;65.81
67109;BME280;54027;50.786;7.058;2022-08-19T09:03:23;101007.22;;;19.89;65.57
67109;BME280;54027;50.786;7.058;2022-08-19T09:05:54;100999.19;;;19.91;65.66
67109;BME280;54027;50.786;7.058;2022-08-19T09:08:27;101002.63;;;19.93;66.02
67109;BME280;54027;50.786;7.058;2022-08-19T09:10:56;100996.31;;;19.95;65.05
67109;BME280;54027;50.786;7.058;2022-08-19T09:16:07;100995.28;;;19.98;65.20
67109;BME280;54027;50.786;7.058;2022-08-19T09:18:46;100998.63;;;20.01;64.91
67109;BME280;54027;50.786;7.058;2022-08-19T09:21:12;100994.28;;;20.00;64.81
67109;BME280;54027;50.786;7.058;2022-08-19T09:23:38;100996.91;;;20.00;64.87
67109;BME280;54027;50.786;7.058;2022-08-19T09:26:14;101002.88;;;20.04;64.18
67109;BME280;54027;50.786;7.058;2022-08-19T09:28:40;100989.78;;;20.02;64.37
67109;BME280;54027;50.786;7.058;2022-08-19T09:31:09;100996.34;;;20.11;64.19
67109;BME280;54027;50.786;7.058;2022-08-19T09:33:35;100998.72;;;20.15;64.12
67109;BME280;54027;50.786;7.058;2022-08-19T09:36:01;100997.69;;;20.18;64.07
67109;BME280;54027;50.786;7.058;2022-08-19T09:38:28;100991.31;;;20.22;63.74
67109;BME280;54027;50.786;7.058;2022-08-19T09:40:53;100999.28;;;20.20;63.84
67109;BME280;54027;50.786;7.058;2022-08-19T09:43:18;100989.13;;;20.14;64.15
67109;BME280;54027;50.786;7.058;2022-08-19T09:45:44;100988.25;;;20.14;64.02
67109;BME280;54027;50.786;7.058;2022-08-19T09:48:09;100983.56;;;20.19;64.32
67109;BME280;54027;50.786;7.058;2022-08-19T09:50:35;100979.16;;;20.19;63.75
67109;BME280;54027;50.786;7.058;2022-08-19T09:53:03;100978.28;;;20.19;63.97
67109;BME280;54027;50.786;7.058;2022-08-19T09:55:30;100980.81;;;20.20;63.41
67109;BME280;54027;50.786;7.058;2022-08-19T09:57:55;100987.81;;;20.21;63.87
67109;BME280;54027;50.786;7.058;2022-08-19T10:00:21;100988.38;;;20.26;64.06
67109;BME280;54027;50.786;7.058;2022-08-19T10:02:46;100982.53;;;20.21;64.00
67109;BME280;54027;50.786;7.058;2022-08-19T10:05:11;100970.03;;;20.25;63.96
67109;BME280;54027;50.786;7.058;2022-08-19T10:08:09;100979.66;;;20.26;64.59
67109;BME280;54027;50.786;7.058;2022-08-19T10:10:36;100983.03;;;20.28;64.18
67109;BME280;54027;50.786;7.058;2022-08-19T10:13:02;100986.34;;;20.31;63.58
67109;BME280;54027;50.786;7.058;2022-08-19T10:15:29;100983.44;;;20.36;62.75
67109;BME280;54027;50.786;7.058;2022-08-19T10:17:54;100979.13;;;20.35;62.19
67109;BME280;54027;50.786;7.058;2022-08-19T10:20:20;100981.94;;;20.32;61.89
67109;BME280;54027;50.786;7.058;2022-08-19T10:22:45;100971.72;;;20.26;62.37
67109;BME280;54027;50.786;7.058;2022-08-19T10:25:10;100965.56;;;20.41;61.39
67109;BME280;54027;50.786;7.058;2022-08-19T10:27:36;100966.56;;;20.39;61.55
67109;BME280;54027;50.786;7.058;2022-08-19T10:30:03;100966.53;;;20.24;62.81
67109;BME280;54027;50.786;7.058;2022-08-19T10:32:28;100964.22;;;20.34;61.56
67109;BME280;54027;50.786;7.058;2022-08-19T10:34:54;100963.84;;;20.40;61.50
67109;BME280;54027;50.786;7.058;2022-08-19T10:37:21;100959.47;;;20.55;59.83
67109;BME280;54027;50.786;7.058;2022-08-19T10:39:46;100954.84;;;20.58;59.94
67109;BME280;54027;50.786;7.058;2022-08-19T10:42:12;100960.75;;;20.48;60.58
67109;BME280;54027;50.786;7.058;2022-08-19T10:44:40;100960.13;;;20.58;59.64
67109;BME280;54027;50.786;7.058;2022-08-19T10:47:05;100967.88;;;20.61;59.01
67109;BME280;54027;50.786;7.058;2022-08-19T10:49:31;100966.72;;;20.65;58.79
67109;BME280;54027;50.786;7.058;2022-08-19T10:51:57;100954.00;;;20.58;59.39
67109;BME280;54027;50.786;7.058;2022-08-19T10:54:41;100955.53;;;20.76;58.61
67109;BME280;54027;50.786;7.058;2022-08-19T10:57:25;100957.94;;;20.51;60.07
67109;BME280;54027;50.786;7.058;2022-08-19T10:59:54;100947.00;;;20.57;59.79
67109;BME280;54027;50.786;7.058;2022-08-19T11:02:20;100948.06;;;20.68;58.09
67109;BME280;54027;50.786;7.058;2022-08-19T11:04:45;100946.41;;;20.67;57.49
67109;BME280;54027;50.786;7.058;2022-08-19T11:07:11;100943.38;;;20.73;57.34
67109;BME280;54027;50.786;7.058;2022-08-19T11:09:40;100946.59;;;20.78;57.34
67109;BME280;54027;50.786;7.058;2022-08-19T11:12:06;100942.31;;;20.92;57.29
67109;BME280;54027;50.786;7.058;2022-08-19T11:14:33;100940.78;;;20.87;57.45
67109;BME280;54027;50.786;7.058;2022-08-19T11:16:58;100951.81;;;20.94;57.15
67109;BME280;54027;50.786;7.058;2022-08-19T11:19:24;100940.69;;;20.89;56.44
67109;BME280;54027;50.786;7.058;2022-08-19T11:21:49;100933.53;;;20.91;56.80
67109;BME280;54027;50.786;7.058;2022-08-19T11:24:19;100941.06;;;20.97;56.37
67109;BME280;54027;50.786;7.058;2022-08-19T11:26:45;100938.44;;;20.97;56.84
67109;BME280;54027;50.786;7.058;2022-08-19T11:29:11;100925.22;;;20.97;56.99
67109;BME280;54027;50.786;7.058;2022-08-19T11:31:38;100931.94;;;21.03;56.62
67109;BME280;54027;50.786;7.058;2022-08-19T11:34:05;100937.75;;;21.08;57.37
67109;BME280;54027;50.786;7.058;2022-08-19T11:36:32;100932.09;;;21.00;59.11
67109;BME280;54027;50.786;7.058;2022-08-19T11:38:57;100928.78;;;21.10;56.65
67109;BME280;54027;50.786;7.058;2022-08-19T11:41:23;100932.19;;;21.26;55.63
67109;BME280;54027;50.786;7.058;2022-08-19T11:43:49;100923.28;;;21.27;55.87
67109;BME280;54027;50.786;7.058;2022-08-19T11:46:15;100929.63;;;21.25;56.33
67109;BME280;54027;50.786;7.058;2022-08-19T11:48:41;100929.63;;;21.25;55.81
67109;BME280;54027;50.786;7.058;2022-08-19T11:51:08;100942.56;;;21.29;55.60
67109;BME280;54027;50.786;7.058;2022-08-19T11:53:33;100925.38;;;21.36;55.01
67109;BME280;54027;50.786;7.058;2022-08-19T11:55:59;100925.19;;;21.25;55.31
67109;BME280;54027;50.786;7.058;2022-08-19T11:58:25;100921.03;;;21.35;54.62
67109;BME280;54027;50.786;7.058;2022-08-19T12:00:50;100923.50;;;21.24;54.77
67109;BME280;54027;50.786;7.058;2022-08-19T12:03:16;100932.75;;;21.31;54.75
67109;BME280;54027;50.786;7.058;2022-08-19T12:05:41;100923.19;;;21.43;53.83
67109;BME280;54027;50.786;7.058;2022-08-19T12:08:07;100919.81;;;21.41;54.62
67109;BME280;54027;50.786;7.058;2022-08-19T12:10:33;100927.34;;;21.47;53.89
67109;BME280;54027;50.786;7.058;2022-08-19T12:12:59;100928.75;;;21.53;53.31
67109;BME280;54027;50.786;7.058;2022-08-19T12:15:25;100926.59;;;21.45;53.47
67109;BME280;54027;50.786;7.058;2022-08-19T12:17:54;100921.91;;;21.36;54.34
67109;BME280;54027;50.786;7.058;2022-08-19T12:20:21;100924.09;;;21.15;55.48
67109;BME280;54027;50.786;7.058;2022-08-19T12:22:47;100922.66;;;21.10;55.72
67109;BME280;54027;50.786;7.058;2022-08-19T12:25:13;100917.56;;;21.07;55.47
67109;BME280;54027;50.786;7.058;2022-08-19T12:27:40;100914.88;;;21.49;52.19
67109;BME280;54027;50.786;7.058;2022-08-19T12:30:06;100905.53;;;21.43;52.83
67109;BME280;54027;50.786;7.058;2022-08-19T12:32:32;100908.91;;;21.45;52.92
67109;BME280;54027;50.786;7.058;2022-08-19T12:34:58;100907.06;;;21.33;53.13
67109;BME280;54027;50.786;7.058;2022-08-19T12:37:23;100900.06;;;21.47;53.68
67109;BME280;54027;50.786;7.058;2022-08-19T12:39:48;100903.16;;;21.53;52.61
67109;BME280;54027;50.786;7.058;2022-08-19T12:42:14;100906.34;;;21.58;52.20
67109;BME280;54027;50.786;7.058;2022-08-19T12:44:40;100905.88;;;21.52;51.91
67109;BME280;54027;50.786;7.058;2022-08-19T12:47:07;100899.22;;;21.46;52.47
67109;BME280;54027;50.786;7.058;2022-08-19T12:49:33;100905.13;;;21.64;52.72
67109;BME280;54027;50.786;7.058;2022-08-19T12:52:03;100896.81;;;21.70;50.96
67109;BME280;54027;50.786;7.058;2022-08-19T12:54:28;100882.88;;;21.54;51.62